Hallum, Netherlands
Current Conditions -  °F | °C
As of 3:25 AM on Saturday 25 Oct 2014 (Local Time) from EHLW Reporting Station
Haze Haze  
Wind Chill: 54°   Ceiling: 300
Heat Index: 54°   Visibility: 1.8mi
Dew Point: 54°   Wind: 13mph
Humidity: 100%   Direction: 200°SSW
Pressure: 29.91"   Gusts: NA
Location:  53.31°N, 5.78°E
Report Text: EHLW 250125Z AUTO 20011KT 3000 R23/P3000 BR OVC003 12/12 Q1013 YLO
Loading
Personal Weather Stations






























Interactive Weather Map
Tropical Storm Tracking
New forecast layout! Learn more

10-Day Weather Forecast

Advertisements
Track Severe Weather on mobile